Groningen, Minnesota
Current Conditions -  °F | °C
As of 12:13 PM on Thursday 29 Jan 2015 (Local Time) from K04W Reporting Station
Overcast Overcast  
Wind Chill: 16°   Ceiling: 2200
Heat Index: 28°   Visibility: 10mi
Dew Point: 19°   Wind: 17mph
Humidity: 69%   Direction: 320°NW
Pressure: 30.22"   Gusts: 24mph
Location:  46.138°N, 92.5611°W
Report Text: K04W 291813Z AUTO 32015G21KT 10SM OVC022 M02/M07 A3022 RMK AO2
Loading
Personal Weather Stations






























Interactive Weather Map New forecast layout! Learn more

10-Day Weather Forecast

Advertisements
Track Severe Weather on mobile